Time;durP1;ratioP1;P1;durP2;ratioP2;P2;SDS_P1;SDS_P2;PMS_P1;PMS_P2;Temp;Humidity;BMP_temperature;BMP_pressure;BME280_temperature;BME280_humidity;BME280_pressure;Samples;Min_cycle;Max_cycle;Signal;HPM_P1;HPM_P2
2021/08/06 00:03:01;;;;;;;0.60;0.50;;;;;;;17.29;73.36;97349.00;263749;1093;115667;-64
2021/08/06 00:08:05;;;;;;;0.83;0.60;;;;;;;17.28;73.40;97350.00;263256;1092;114949;-62
2021/08/06 00:13:09;;;;;;;0.85;0.50;;;;;;;17.24;73.30;97352.20;263489;1092;114998;-60
2021/08/06 00:18:13;;;;;;;0.40;0.40;;;;;;;17.22;73.52;97359.63;263531;1092;115450;-62
2021/08/06 00:23:16;;;;;;;2.38;0.70;;;;;;;17.16;73.21;97349.59;263757;1093;115260;-61
2021/08/06 00:28:20;;;;;;;1.27;0.40;;;;;;;17.12;73.54;97350.96;263613;1092;114943;-60
2021/08/06 00:33:24;;;;;;;0.63;0.50;;;;;;;17.09;73.70;97347.80;263322;1092;115999;-63
2021/08/06 00:38:28;;;;;;;0.93;0.50;;;;;;;17.11;74.00;97354.64;263616;1092;115309;-65
2021/08/06 00:43:32;;;;;;;1.40;0.70;;;;;;;17.13;73.88;97344.56;263154;1092;115227;-63
2021/08/06 00:48:40;;;;;;;2.20;0.50;;;;;;;17.10;73.58;97352.98;263070;1091;115807;-62
2021/08/06 00:53:45;;;;;;;1.60;0.60;;;;;;;17.05;73.34;97344.63;263126;1092;115338;-59
2021/08/06 00:58:50;;;;;;;;;;;;;;;17.00;73.73;97358.58;262750;1093;115258;-59
2021/08/06 01:04:10;;;;;;;0.60;0.60;;;;;;;16.95;73.92;97349.36;263117;1092;102885;-61
2021/08/06 01:09:48;;;;;;;1.47;0.60;;;;;;;16.95;73.60;97360.98;263101;1092;115511;-60
2021/08/06 01:15:00;;;;;;;1.25;0.70;;;;;;;16.91;73.95;97358.80;263100;1092;115502;-61
2021/08/06 01:20:13;;;;;;;1.80;0.80;;;;;;;16.92;74.06;97355.13;263245;1092;115484;-61
2021/08/06 01:25:32;;;;;;;1.20;0.83;;;;;;;16.87;74.25;97363.69;263357;1093;115348;-61
2021/08/06 01:30:36;;;;;;;3.30;0.90;;;;;;;16.89;73.92;97361.67;263599;1092;115170;-61
2021/08/06 01:35:42;;;;;;;1.73;0.93;;;;;;;16.90;73.93;97373.25;263437;1092;114874;-62
2021/08/06 01:41:03;;;;;;;1.20;1.00;;;;;;;16.90;74.21;97371.40;263498;1092;115275;-59
2021/08/06 01:46:16;;;;;;;1.80;1.20;;;;;;;16.87;73.96;97374.44;262785;1092;117306;-64
2021/08/06 01:51:22;;;;;;;2.93;1.10;;;;;;;16.85;73.68;97380.99;262989;1092;115098;-61
2021/08/06 01:56:27;;;;;;;4.00;0.98;;;;;;;16.83;73.99;97391.09;263027;1093;115209;-62
2021/08/06 02:01:33;;;;;;;2.03;1.30;;;;;;;16.87;73.71;97382.50;263407;1093;115798;-62
2021/08/06 02:06:44;;;;;;;1.60;1.10;;;;;;;16.83;74.16;97389.24;263498;1090;115792;-59
2021/08/06 02:11:53;;;;;;;2.10;1.17;;;;;;;16.81;73.91;97391.25;262912;1093;115084;-60
2021/08/06 02:17:02;;;;;;;1.67;1.00;;;;;;;16.83;74.21;97383.87;262790;1093;115486;-59
2021/08/06 02:22:14;;;;;;;2.27;0.90;;;;;;;16.84;74.43;97380.16;263153;1092;115089;-63
2021/08/06 02:27:23;;;;;;;2.20;1.10;;;;;;;16.79;74.44;97385.23;263735;1092;115694;-60
2021/08/06 02:32:28;;;;;;;1.47;0.70;;;;;;;16.78;74.27;97388.95;262942;1093;116267;-60
2021/08/06 02:37:37;;;;;;;2.03;0.70;;;;;;;16.75;73.78;97395.50;262771;1092;115033;-61
2021/08/06 02:42:41;;;;;;;0.83;0.70;;;;;;;16.77;74.05;97390.77;263190;1092;115575;-60
2021/08/06 02:47:45;;;;;;;1.48;0.70;;;;;;;16.81;74.50;97396.63;263402;1092;115401;-60
2021/08/06 02:52:49;;;;;;;4.83;0.75;;;;;;;16.79;74.22;97404.88;263272;1093;115126;-60
2021/08/06 02:57:53;;;;;;;0.93;0.43;;;;;;;16.83;74.22;97408.05;263513;1092;115596;-62
2021/08/06 03:02:57;;;;;;;0.88;0.60;;;;;;;16.88;74.26;97410.20;263163;1092;114880;-59
2021/08/06 03:08:02;;;;;;;0.50;0.50;;;;;;;16.85;74.18;97415.92;262972;1092;115280;-63
2021/08/06 03:13:06;;;;;;;1.85;0.43;;;;;;;16.78;74.02;97418.50;263393;1093;115284;-61
2021/08/06 03:18:12;;;;;;;1.10;0.70;;;;;;;16.81;73.86;97420.81;263590;1093;115126;-60
2021/08/06 03:23:15;;;;;;;2.10;0.80;;;;;;;16.87;73.93;97427.34;263704;1092;115241;-60
2021/08/06 03:28:20;;;;;;;2.33;0.63;;;;;;;16.86;74.21;97436.42;263384;1092;115468;-62
2021/08/06 03:33:24;;;;;;;1.67;0.53;;;;;;;16.77;73.87;97433.75;263412;1093;115331;-60
2021/08/06 03:38:28;;;;;;;1.63;0.77;;;;;;;16.77;73.97;97439.13;263627;1093;115461;-60
2021/08/06 03:43:34;;;;;;;2.57;0.60;;;;;;;16.75;74.23;97440.34;263483;1092;115522;-60
2021/08/06 03:48:39;;;;;;;0.73;0.68;;;;;;;16.72;73.90;97446.85;263521;1092;114918;-59
2021/08/06 03:53:43;;;;;;;0.43;0.43;;;;;;;16.69;73.58;97447.20;262792;1093;115799;-60
2021/08/06 03:58:47;;;;;;;0.60;0.60;;;;;;;16.66;73.83;97454.77;263571;1093;114763;-62
2021/08/06 04:03:51;;;;;;;1.00;0.60;;;;;;;16.64;73.90;97465.66;263158;1092;115096;-61
2021/08/06 04:08:56;;;;;;;0.70;0.63;;;;;;;16.58;73.38;97468.23;263220;1092;115440;-60
2021/08/06 04:14:04;;;;;;;1.77;0.50;;;;;;;16.48;73.37;97471.94;263094;1092;115876;-61
2021/08/06 04:19:08;;;;;;;1.75;0.60;;;;;;;16.45;73.46;97474.95;263051;1091;115381;-59
2021/08/06 04:24:12;;;;;;;1.90;1.03;;;;;;;16.43;73.78;97478.81;263004;1093;115318;-59
2021/08/06 04:29:16;;;;;;;1.15;0.80;;;;;;;16.42;73.76;97485.20;263179;1092;114533;-61
2021/08/06 04:34:20;;;;;;;1.05;0.80;;;;;;;16.38;73.81;97491.92;263504;1093;115262;-58
2021/08/06 04:39:23;;;;;;;3.43;0.40;;;;;;;16.35;73.71;97486.89;263670;1093;115441;-59
2021/08/06 04:44:29;;;;;;;1.43;0.90;;;;;;;16.39;73.78;97496.28;262217;1092;114908;-64
2021/08/06 04:49:33;;;;;;;1.50;0.90;;;;;;;16.32;73.30;97502.32;263349;1092;115598;-63
2021/08/06 04:54:38;;;;;;;2.45;1.00;;;;;;;16.30;73.85;97509.72;263573;1092;115208;-60
2021/08/06 04:59:42;;;;;;;1.33;0.88;;;;;;;16.28;73.72;97516.27;263120;1093;115414;-63
2021/08/06 05:04:45;;;;;;;1.50;0.87;;;;;;;16.29;74.07;97528.66;263718;1092;115598;-65
2021/08/06 05:09:49;;;;;;;3.00;1.20;;;;;;;16.26;73.70;97532.52;263563;1093;115182;-62
2021/08/06 05:14:53;;;;;;;2.33;1.23;;;;;;;16.25;74.07;97530.02;263174;1093;115203;-61
2021/08/06 05:19:56;;;;;;;2.80;1.20;;;;;;;16.29;74.06;97544.77;263101;1092;115788;-63
2021/08/06 05:25:04;;;;;;;2.70;1.67;;;;;;;16.32;74.10;97547.96;263420;1092;115151;-62
2021/08/06 05:30:10;;;;;;;4.70;1.73;;;;;;;16.31;73.89;97550.83;263684;1092;115001;-59
2021/08/06 05:35:17;;;;;;;3.40;1.90;;;;;;;16.31;74.02;97556.20;263103;1092;114904;-58
2021/08/06 05:40:21;;;;;;;3.10;2.07;;;;;;;16.31;74.11;97562.40;263447;1092;115271;-61
2021/08/06 05:45:26;;;;;;;;;;;;;;;16.31;73.97;97567.77;262808;1092;115465;-57
2021/08/06 05:50:38;;;;;;;2.50;1.93;;;;;;;16.30;74.29;97570.60;263305;1093;102030;-60
2021/08/06 05:55:42;;;;;;;1.70;1.60;;;;;;;16.32;74.42;97568.60;263476;1092;115274;-60
2021/08/06 06:00:47;;;;;;;3.13;1.58;;;;;;;16.33;74.41;97571.11;263286;1092;115176;-60
2021/08/06 06:05:59;;;;;;;4.63;2.10;;;;;;;16.40;74.37;97575.81;263486;1093;115177;-60
2021/08/06 06:11:02;;;;;;;3.85;1.80;;;;;;;16.44;74.31;97577.14;263340;1092;115280;-62
2021/08/06 06:16:06;;;;;;;2.88;1.85;;;;;;;16.46;73.90;97585.89;263191;1093;115674;-60
2021/08/06 06:21:10;;;;;;;3.60;1.88;;;;;;;16.45;74.39;97587.73;263435;1092;115176;-60
2021/08/06 06:26:15;;;;;;;;;;;;;;;16.56;74.28;97589.24;262924;1092;115132;-62
2021/08/06 06:31:19;;;;;;;3.97;1.83;;;;;;;16.58;74.40;97595.30;263138;1092;101680;-61
2021/08/06 06:36:23;;;;;;;1.88;1.60;;;;;;;16.56;74.13;97599.98;262767;1092;114698;-60
2021/08/06 06:41:27;;;;;;;34.90;28.67;;;;;;;16.54;73.81;97597.48;263566;1093;115192;-62
2021/08/06 06:46:53;;;;;;;2.97;2.00;;;;;;;16.55;73.25;97606.38;263153;1093;115578;-57
2021/08/06 06:51:57;;;;;;;5.30;4.08;;;;;;;16.52;74.11;97599.48;263180;1093;115266;-60
2021/08/06 06:57:01;;;;;;;2.73;1.58;;;;;;;16.53;73.79;97611.06;263755;1092;115527;-61
2021/08/06 07:02:05;;;;;;;1.10;1.00;;;;;;;16.53;73.74;97621.80;263249;1093;115267;-60
2021/08/06 07:07:11;;;;;;;5.58;1.90;;;;;;;16.50;73.86;97622.13;261432;1092;115031;-62
2021/08/06 07:12:21;;;;;;;84.70;61.77;;;;;;;16.45;73.88;97627.19;261381;1093;115823;-60
2021/08/06 07:17:34;;;;;;;2.37;1.70;;;;;;;16.42;73.76;97641.77;261287;1092;115242;-60
2021/08/06 07:22:41;;;;;;;1.97;1.60;;;;;;;16.40;73.90;97646.45;263244;1092;114801;-61
2021/08/06 07:27:46;;;;;;;2.20;1.95;;;;;;;16.41;73.89;97655.38;263515;1092;115012;-59
2021/08/06 07:32:51;;;;;;;3.90;2.10;;;;;;;16.36;73.81;97661.23;263198;1092;115534;-60
2021/08/06 07:37:56;;;;;;;3.53;1.80;;;;;;;16.28;73.42;97666.59;262756;1093;115512;-60
2021/08/06 07:43:00;;;;;;;2.48;1.70;;;;;;;16.27;73.37;97683.69;263168;1092;115441;-64
2021/08/06 07:48:04;;;;;;;2.48;1.90;;;;;;;16.30;73.71;97681.55;263282;1092;115900;-59
2021/08/06 07:53:08;;;;;;;3.85;2.35;;;;;;;16.31;73.37;97675.16;263232;1092;114839;-58
2021/08/06 07:58:12;;;;;;;3.48;2.15;;;;;;;16.28;73.32;97680.86;263457;1092;115254;-59
2021/08/06 08:03:16;;;;;;;93.50;68.25;;;;;;;16.36;73.68;97687.24;263254;1092;115454;-60
2021/08/06 08:08:20;;;;;;;3.43;2.08;;;;;;;16.44;73.62;97706.91;263367;1092;116022;-58
2021/08/06 08:13:25;;;;;;;3.90;2.50;;;;;;;16.47;73.66;97706.58;263361;1092;115111;-60
2021/08/06 08:18:34;;;;;;;2.07;1.80;;;;;;;16.48;73.25;97712.79;263562;1092;115802;-59
2021/08/06 08:23:38;;;;;;;3.48;2.00;;;;;;;16.48;73.73;97716.31;263463;1092;114638;-57
2021/08/06 08:28:42;;;;;;;131.13;98.50;;;;;;;16.56;74.10;97724.37;263489;1093;115177;-58
2021/08/06 08:33:46;;;;;;;3.05;2.35;;;;;;;16.64;73.42;97717.33;263212;1093;116169;-58
2021/08/06 08:38:51;;;;;;;3.18;2.40;;;;;;;16.73;73.64;97714.48;262945;1093;115245;-59
2021/08/06 08:43:56;;;;;;;249.20;159.10;;;;;;;16.92;73.89;97729.48;263475;1093;115325;-58
2021/08/06 08:49:01;;;;;;;4.07;2.47;;;;;;;17.03;73.46;97733.69;263156;1092;115516;-58
2021/08/06 08:54:07;;;;;;;2.27;1.90;;;;;;;17.07;73.09;97742.25;262862;1092;115284;-59
2021/08/06 08:59:13;;;;;;;2.33;1.67;;;;;;;17.05;72.96;97746.95;263018;1092;114881;-60
2021/08/06 09:04:19;;;;;;;4.40;1.73;;;;;;;16.98;72.79;97746.77;263469;1093;115389;-59
2021/08/06 09:09:26;;;;;;;3.13;1.90;;;;;;;16.95;72.58;97747.97;263376;1092;116046;-58
2021/08/06 09:14:46;;;;;;;4.63;2.07;;;;;;;16.98;72.72;97750.33;262978;1093;116551;-58
2021/08/06 09:19:56;;;;;;;5.17;1.90;;;;;;;17.02;72.75;97754.36;263228;1093;115568;-61
2021/08/06 09:25:17;;;;;;;4.43;3.43;;;;;;;17.10;73.17;97758.05;263376;1092;118041;-60
2021/08/06 09:30:31;;;;;;;214.67;144.90;;;;;;;17.11;72.57;97760.55;263228;1092;114783;-58
2021/08/06 09:35:36;;;;;;;5.57;2.27;;;;;;;17.12;72.80;97762.26;263109;1093;116464;-60
2021/08/06 09:40:40;;;;;;;3.00;2.67;;;;;;;17.08;72.54;97766.27;263241;1093;114507;-61
2021/08/06 09:45:44;;;;;;;3.90;2.37;;;;;;;17.11;73.06;97767.78;263555;1092;114494;-60
2021/08/06 09:50:48;;;;;;;3.00;2.50;;;;;;;17.08;72.89;97778.87;263431;1093;115359;-60
2021/08/06 09:55:52;;;;;;;85.88;54.05;;;;;;;17.12;72.63;97770.32;263334;1092;115244;-61
2021/08/06 10:00:59;;;;;;;4.15;2.58;;;;;;;17.19;72.54;97775.87;263407;1093;115945;-60
2021/08/06 10:06:12;;;;;;;3.53;2.00;;;;;;;17.25;72.61;97773.34;263313;1092;114878;-61
2021/08/06 10:11:16;;;;;;;46.57;36.40;;;;;;;17.33;72.32;97777.05;263168;1093;115584;-60
2021/08/06 10:16:20;;;;;;;5.95;3.13;;;;;;;17.44;72.54;97787.45;263261;1092;115480;-59
2021/08/06 10:21:24;;;;;;;3.38;2.38;;;;;;;17.49;71.65;97787.77;263357;1092;115471;-60
2021/08/06 10:26:28;;;;;;;3.67;2.07;;;;;;;17.50;71.22;97792.99;263343;1093;115241;-59
2021/08/06 10:31:33;;;;;;;2.87;2.00;;;;;;;17.50;71.63;97790.30;263336;1093;114925;-60
2021/08/06 10:36:45;;;;;;;8.80;7.18;;;;;;;17.46;71.32;97798.89;263174;1092;115215;-60
2021/08/06 10:41:50;;;;;;;2.50;2.30;;;;;;;17.42;71.30;97800.21;263011;1092;115127;-58
2021/08/06 10:47:06;;;;;;;2.97;2.40;;;;;;;17.38;70.82;97813.16;263101;1093;114866;-59
2021/08/06 10:52:19;;;;;;;4.67;2.40;;;;;;;17.31;70.92;97822.91;263646;1093;115373;-58
2021/08/06 10:57:29;;;;;;;3.67;1.97;;;;;;;17.25;70.60;97818.19;263352;1092;115734;-58
2021/08/06 11:02:42;;;;;;;2.70;1.60;;;;;;;17.19;70.63;97825.10;263207;1093;115318;-58
2021/08/06 11:07:46;;;;;;;2.73;2.00;;;;;;;17.16;70.41;97825.44;263432;1093;117373;-61
2021/08/06 11:12:51;;;;;;;4.00;1.33;;;;;;;17.06;70.00;97826.59;262884;1091;115200;-60
2021/08/06 11:17:55;;;;;;;1.88;1.50;;;;;;;17.01;70.09;97824.39;263904;1093;115349;-62
2021/08/06 11:22:59;;;;;;;128.73;88.17;;;;;;;17.13;70.68;97828.45;263469;1092;114556;-61
2021/08/06 11:28:03;;;;;;;3.45;2.55;;;;;;;17.33;70.60;97828.14;263883;1092;115913;-60
2021/08/06 11:33:09;;;;;;;5.65;2.43;;;;;;;17.58;70.69;97821.72;263942;1092;115455;-61
2021/08/06 11:38:22;;;;;;;2.97;1.80;;;;;;;17.92;70.07;97818.02;263656;1092;115454;-60
2021/08/06 11:43:31;;;;;;;2.70;2.00;;;;;;;18.13;69.73;97820.97;263695;1092;114687;-59
2021/08/06 11:49:00;;;;;;;2.73;1.47;;;;;;;18.27;69.30;97835.57;263629;1093;115819;-60
2021/08/06 11:54:08;;;;;;;3.73;1.60;;;;;;;18.33;68.47;97828.66;263358;1092;115569;-59
2021/08/06 11:59:12;;;;;;;3.17;1.70;;;;;;;18.40;68.73;97832.33;263203;1092;114666;-60
2021/08/06 12:04:26;;;;;;;2.13;1.47;;;;;;;18.40;68.29;97852.03;263821;1093;114617;-59
2021/08/06 12:09:30;;;;;;;2.03;1.40;;;;;;;18.31;67.65;97845.02;263929;1093;115189;-59
2021/08/06 12:14:33;;;;;;;16.73;10.90;;;;;;;18.23;67.44;97854.95;263054;1091;114675;-59
2021/08/06 12:19:46;;;;;;;3.37;1.60;;;;;;;18.24;67.56;97849.41;262905;1092;115182;-61
2021/08/06 12:24:53;;;;;;;1.97;1.57;;;;;;;18.18;67.07;97858.17;263503;1093;114857;-59
2021/08/06 12:29:57;;;;;;;5.95;1.60;;;;;;;18.08;67.21;97858.36;263869;1093;115314;-61
2021/08/06 12:35:00;;;;;;;1.75;1.35;;;;;;;18.06;67.14;97863.06;263720;1093;114510;-59
2021/08/06 12:40:05;;;;;;;4.50;1.77;;;;;;;18.06;67.62;97860.38;263945;1093;115372;-60
2021/08/06 12:45:16;;;;;;;2.65;1.78;;;;;;;18.35;67.28;97878.66;263876;1092;115668;-59
2021/08/06 12:50:22;;;;;;;5.87;1.60;;;;;;;18.80;67.95;97858.30;264011;1092;115771;-61
2021/08/06 12:55:26;;;;;;;3.07;1.70;;;;;;;19.36;67.56;97869.77;263869;1092;115270;-60
2021/08/06 13:00:31;;;;;;;2.03;1.18;;;;;;;19.77;66.80;97871.33;263662;1092;115723;-61
2021/08/06 13:05:39;;;;;;;2.23;1.87;;;;;;;19.80;66.14;97879.04;263712;1093;115437;-60
2021/08/06 13:10:45;;;;;;;4.03;1.90;;;;;;;19.80;65.35;97896.11;263777;1092;115511;-60
2021/08/06 13:15:49;;;;;;;2.43;1.80;;;;;;;19.72;65.31;97900.72;263141;1093;115767;-60
2021/08/06 13:20:54;;;;;;;2.25;1.95;;;;;;;19.64;65.29;97900.80;263358;1091;115118;-59
2021/08/06 13:25:57;;;;;;;3.10;1.93;;;;;;;19.81;65.67;97908.58;263917;1092;115291;-61
2021/08/06 13:31:01;;;;;;;5.07;1.97;;;;;;;20.17;65.60;97901.66;263451;1091;115046;-62
2021/08/06 13:36:07;;;;;;;2.65;1.50;;;;;;;20.56;65.23;97904.16;263603;1091;116167;-60
2021/08/06 13:41:12;;;;;;;3.20;2.10;;;;;;;20.61;64.61;97906.29;263790;1093;116125;-60
2021/08/06 13:46:16;;;;;;;;;;;;;;;20.52;63.40;97906.39;263208;1093;116076;-59
2021/08/06 13:51:20;;;;;;;5.17;2.23;;;;;;;20.39;63.33;97903.47;263088;1092;101670;-59
2021/08/06 13:56:24;;;;;;;2.93;1.80;;;;;;;20.28;62.93;97920.98;263987;1092;115501;-60
2021/08/06 14:01:28;;;;;;;56.98;43.45;;;;;;;20.57;62.93;97916.64;263914;1092;115014;-61
2021/08/06 14:06:33;;;;;;;3.68;2.25;;;;;;;20.67;62.27;97925.30;263842;1092;115755;-63
2021/08/06 14:11:37;;;;;;;2.40;1.53;;;;;;;20.90;62.07;97927.91;263701;1093;115617;-61
2021/08/06 14:16:40;;;;;;;2.13;1.60;;;;;;;20.87;61.38;97935.56;263621;1092;115348;-62
2021/08/06 14:21:44;;;;;;;5.10;1.85;;;;;;;20.73;60.63;97948.91;263252;1093;115329;-61
2021/08/06 14:26:49;;;;;;;3.55;1.90;;;;;;;20.65;60.54;97950.84;262820;1092;115509;-62
2021/08/06 14:31:53;;;;;;;3.10;1.77;;;;;;;20.80;60.20;97954.41;263550;1093;117393;-60
2021/08/06 14:36:56;;;;;;;5.98;1.88;;;;;;;20.94;59.65;97958.96;262863;1093;115135;-61
2021/08/06 14:42:00;;;;;;;7.80;1.93;;;;;;;21.04;59.06;97966.80;263056;1092;115510;-60
2021/08/06 14:47:05;;;;;;;2.83;1.20;;;;;;;21.05;58.35;97971.17;263172;1093;116140;-61
2021/08/06 14:52:09;;;;;;;6.10;1.53;;;;;;;20.97;57.54;97971.28;263195;1093;115669;-62
2021/08/06 14:57:12;;;;;;;2.63;1.48;;;;;;;20.84;57.05;97976.50;263388;1093;114961;-62
2021/08/06 15:02:16;;;;;;;1.87;1.20;;;;;;;20.69;57.00;97981.92;263202;1092;114696;-59
2021/08/06 15:07:20;;;;;;;4.55;3.30;;;;;;;20.64;57.05;97992.43;263376;1092;115588;-61
2021/08/06 15:12:23;;;;;;;4.10;1.60;;;;;;;20.52;56.74;98010.98;262724;1092;115254;-61
2021/08/06 15:17:28;;;;;;;4.08;1.63;;;;;;;20.40;56.80;98013.23;263285;1091;114678;-61
2021/08/06 15:22:31;;;;;;;2.78;1.50;;;;;;;20.27;56.20;98015.72;263018;1093;115329;-60
2021/08/06 15:27:35;;;;;;;3.08;1.53;;;;;;;20.20;56.70;98014.77;263316;1093;115198;-59
2021/08/06 15:32:39;;;;;;;4.00;1.55;;;;;;;20.16;56.15;98030.50;263545;1092;115294;-59
2021/08/06 15:37:44;;;;;;;2.45;1.48;;;;;;;20.13;55.96;98016.52;263708;1093;115272;-61
2021/08/06 15:42:48;;;;;;;6.03;1.30;;;;;;;20.10;55.99;98028.52;263085;1093;115049;-61
2021/08/06 15:47:52;;;;;;;7.40;1.60;;;;;;;20.06;55.77;98022.63;262509;1092;114826;-60
2021/08/06 15:52:57;;;;;;;3.03;1.33;;;;;;;20.02;55.70;98021.31;262799;1092;115185;-59
2021/08/06 15:58:01;;;;;;;3.47;1.60;;;;;;;20.00;55.44;98027.91;263662;1093;115257;-59
2021/08/06 16:03:04;;;;;;;5.25;1.60;;;;;;;19.97;55.01;98037.23;263565;1092;115466;-62
2021/08/06 16:08:08;;;;;;;5.35;2.50;;;;;;;19.92;55.30;98041.48;263813;1091;114720;-58
2021/08/06 16:13:12;;;;;;;3.57;1.60;;;;;;;19.92;55.70;98044.19;263566;1092;115009;-59
2021/08/06 16:18:16;;;;;;;2.80;1.50;;;;;;;19.89;55.29;98042.67;263712;1093;115321;-60
2021/08/06 16:23:19;;;;;;;4.03;1.83;;;;;;;19.85;55.10;98042.19;263598;1092;115008;-61
2021/08/06 16:28:23;;;;;;;3.48;1.90;;;;;;;19.82;54.90;98045.25;262794;1093;114957;-60
2021/08/06 16:33:47;;;;;;;4.00;1.68;;;;;;;19.80;54.87;98041.91;263766;1092;115407;-61
2021/08/06 16:38:51;;;;;;;64.48;44.55;;;;;;;19.79;54.85;98047.47;263711;1091;115208;-60
2021/08/06 16:43:54;;;;;;;3.60;2.10;;;;;;;19.79;54.54;98044.77;263358;1092;115831;-62
2021/08/06 16:48:58;;;;;;;5.40;1.90;;;;;;;19.80;54.59;98041.03;263137;1092;115708;-62
2021/08/06 16:54:02;;;;;;;2.40;1.60;;;;;;;19.89;54.77;98042.67;262842;1093;115684;-61
2021/08/06 16:59:07;;;;;;;3.00;1.83;;;;;;;19.92;54.19;98041.48;263143;1093;115624;-61
2021/08/06 17:04:14;;;;;;;4.73;1.70;;;;;;;19.97;54.94;98047.17;263455;1092;114642;-61
2021/08/06 17:09:18;;;;;;;3.20;1.47;;;;;;;19.97;54.43;98042.64;263492;1093;116119;-63
2021/08/06 17:14:22;;;;;;;3.10;1.53;;;;;;;19.96;54.29;98035.53;262424;1093;114692;-59
2021/08/06 17:19:28;;;;;;;3.00;1.38;;;;;;;19.97;54.27;98039.08;263511;1092;115033;-59
2021/08/06 17:24:31;;;;;;;5.33;1.77;;;;;;;19.94;54.23;98040.30;262834;1092;115574;-59
2021/08/06 17:29:37;;;;;;;5.17;1.57;;;;;;;19.95;54.65;98041.97;262866;1092;114789;-61
2021/08/06 17:34:41;;;;;;;1.60;1.33;;;;;;;19.95;54.26;98039.27;263010;1092;115043;-62
2021/08/06 17:39:45;;;;;;;2.53;1.67;;;;;;;19.94;53.78;98043.00;263246;1092;115872;-63
2021/08/06 17:44:49;;;;;;;1.90;1.40;;;;;;;19.91;53.45;98046.05;263404;1092;115887;-62
2021/08/06 17:49:53;;;;;;;21.30;15.73;;;;;;;19.89;53.60;98045.38;263430;1092;115238;-60
2021/08/06 17:54:57;;;;;;;3.25;2.10;;;;;;;19.89;53.65;98044.54;263346;1092;115348;-63
2021/08/06 18:00:00;;;;;;;4.07;2.27;;;;;;;19.92;53.71;98038.78;263225;1092;115180;-62
2021/08/06 18:05:15;;;;;;;4.13;1.77;;;;;;;19.91;53.34;98050.62;263404;1092;115736;-61
2021/08/06 18:10:19;;;;;;;3.97;1.80;;;;;;;19.88;52.89;98054.50;263559;1092;115232;-61
2021/08/06 18:15:25;;;;;;;3.90;2.10;;;;;;;19.79;53.28;98063.66;263471;1092;115325;-63
2021/08/06 18:20:30;;;;;;;2.60;1.60;;;;;;;19.58;52.94;98080.45;262977;1092;115596;-63
2021/08/06 18:25:34;;;;;;;7.73;2.30;;;;;;;19.36;52.84;98077.52;263495;1092;115583;-62
2021/08/06 18:30:38;;;;;;;3.93;1.70;;;;;;;19.17;52.85;98086.00;263412;1092;114710;-62
2021/08/06 18:35:42;;;;;;;;;;;;;;;19.02;53.39;98075.09;263139;1093;114711;-61
2021/08/06 18:40:46;;;;;;;6.60;1.90;;;;;;;18.84;53.21;98086.06;263668;1092;101150;-60
2021/08/06 18:45:50;;;;;;;5.63;2.00;;;;;;;18.73;53.63;98090.98;262738;1092;115404;-61
2021/08/06 18:50:56;;;;;;;3.80;1.98;;;;;;;18.58;53.39;98097.03;263173;1093;115192;-60
2021/08/06 18:56:02;;;;;;;105.83;68.50;;;;;;;18.50;53.77;98098.88;263100;1092;115214;-61
2021/08/06 19:01:05;;;;;;;10.67;5.17;;;;;;;18.46;54.22;98100.23;262714;1092;117117;-61
2021/08/06 19:06:11;;;;;;;8.08;3.40;;;;;;;18.41;54.74;98108.83;263679;1092;115215;-60
2021/08/06 19:11:15;;;;;;;88.87;68.37;;;;;;;18.31;54.62;98102.76;263532;1093;116261;-61
2021/08/06 19:16:18;;;;;;;4.98;3.15;;;;;;;18.22;54.72;98109.97;263591;1093;115662;-60
2021/08/06 19:21:22;;;;;;;5.68;2.45;;;;;;;18.15;54.66;98101.72;263733;1093;115111;-60
2021/08/06 19:26:26;;;;;;;18.40;11.95;;;;;;;18.10;55.29;98109.44;263382;1093;114852;-60
2021/08/06 19:31:32;;;;;;;6.35;3.15;;;;;;;18.07;54.95;98111.61;263219;1092;115214;-64
2021/08/06 19:36:39;;;;;;;5.90;3.23;;;;;;;17.99;55.21;98108.92;263523;1093;114909;-63
2021/08/06 19:41:43;;;;;;;5.60;2.87;;;;;;;17.87;55.41;98120.01;263483;1092;115769;-62
2021/08/06 19:46:46;;;;;;;9.67;3.57;;;;;;;17.76;55.74;98117.59;263487;1093;114574;-60
2021/08/06 19:52:09;;;;;;;6.40;3.23;;;;;;;17.65;55.82;98113.33;263505;1092;115912;-59
2021/08/06 19:57:12;;;;;;;4.47;3.17;;;;;;;17.60;56.00;98121.06;263626;1092;115259;-62
2021/08/06 20:02:16;;;;;;;8.87;3.00;;;;;;;17.50;56.24;98123.88;263710;1093;115195;-63
2021/08/06 20:07:20;;;;;;;7.93;3.58;;;;;;;17.44;56.39;98123.67;263502;1091;115789;-61
2021/08/06 20:12:23;;;;;;;5.07;3.27;;;;;;;17.38;56.79;98124.31;263346;1093;115887;-61
2021/08/06 20:17:27;;;;;;;6.93;3.20;;;;;;;17.32;56.90;98124.95;263608;1092;115666;-63
2021/08/06 20:22:31;;;;;;;8.30;3.40;;;;;;;17.26;57.25;98134.52;263055;1092;115673;-60
2021/08/06 20:27:35;;;;;;;8.53;3.53;;;;;;;17.19;57.34;98134.31;263484;1093;114999;-60
2021/08/06 20:32:39;;;;;;;7.75;3.68;;;;;;;17.13;57.45;98137.63;263674;1092;115149;-59
2021/08/06 20:37:42;;;;;;;5.50;3.28;;;;;;;17.03;57.80;98140.42;262952;1093;115127;-60
2021/08/06 20:42:46;;;;;;;6.80;3.98;;;;;;;16.93;58.03;98138.84;262939;1092;115942;-64
2021/08/06 20:47:50;;;;;;;11.47;4.20;;;;;;;16.82;58.55;98139.95;263645;1093;115231;-59
2021/08/06 20:52:54;;;;;;;9.05;4.60;;;;;;;16.73;58.37;98148.91;263786;1092;115085;-60
2021/08/06 20:57:58;;;;;;;6.80;4.30;;;;;;;16.68;58.71;98143.17;263095;1092;114818;-64
2021/08/06 21:03:01;;;;;;;8.83;4.68;;;;;;;16.65;59.26;98138.95;263460;1092;115677;-64
2021/08/06 21:08:05;;;;;;;8.68;5.08;;;;;;;16.63;59.28;98132.88;263890;1092;114805;-62
2021/08/06 21:13:09;;;;;;;11.37;5.47;;;;;;;16.61;59.81;98140.27;263454;1093;115122;-61
2021/08/06 21:18:12;;;;;;;12.20;5.17;;;;;;;16.59;59.64;98138.72;263662;1091;115139;-59
2021/08/06 21:23:16;;;;;;;10.43;5.17;;;;;;;16.60;59.75;98145.77;263473;1093;115570;-60
2021/08/06 21:28:19;;;;;;;10.33;5.40;;;;;;;16.55;59.71;98144.40;263328;1093;115188;-62
2021/08/06 21:33:24;;;;;;;8.37;4.67;;;;;;;16.50;59.93;98149.38;262700;1092;115261;-69
2021/08/06 21:38:28;;;;;;;10.93;4.60;;;;;;;16.45;59.89;98154.39;263240;1093;115393;-65
2021/08/06 21:43:31;;;;;;;8.77;5.07;;;;;;;16.41;60.42;98147.64;263430;1093;115330;-62
2021/08/06 21:48:35;;;;;;;13.53;5.20;;;;;;;16.37;60.28;98157.00;263527;1092;114897;-63
2021/08/06 21:53:38;;;;;;;13.00;5.30;;;;;;;16.30;60.40;98154.09;263525;1092;115839;-63
2021/08/06 21:58:44;;;;;;;14.13;8.67;;;;;;;16.23;60.29;98149.45;263457;1092;115613;-64
2021/08/06 22:03:48;;;;;;;9.10;4.53;;;;;;;16.21;60.66;98146.94;263595;1093;115149;-64
2021/08/06 22:08:52;;;;;;;9.83;5.33;;;;;;;16.19;60.68;98159.66;263004;1093;114918;-67
2021/08/06 22:13:57;;;;;;;9.93;5.03;;;;;;;16.16;61.03;98154.59;263380;1093;114925;-62
2021/08/06 22:19:01;;;;;;;8.48;4.83;;;;;;;16.09;61.15;98159.72;263402;1092;115297;-63
2021/08/06 22:24:06;;;;;;;8.43;5.05;;;;;;;16.06;61.18;98148.45;263145;1093;114471;-60
2021/08/06 22:29:11;;;;;;;12.35;4.60;;;;;;;16.01;61.48;98154.28;263109;1093;115053;-64
2021/08/06 22:34:15;;;;;;;9.93;5.83;;;;;;;15.98;61.66;98156.42;262823;1091;114702;-66
2021/08/06 22:39:20;;;;;;;11.65;5.50;;;;;;;15.92;61.63;98152.50;262549;1093;114631;-63
2021/08/06 22:44:24;;;;;;;13.70;6.28;;;;;;;15.84;61.75;98155.09;263505;1092;115317;-62
2021/08/06 22:49:28;;;;;;;9.83;5.73;;;;;;;15.81;62.10;98156.23;262519;1092;115053;-64
2021/08/06 22:54:32;;;;;;;11.18;5.70;;;;;;;15.81;62.30;98153.55;262963;1092;114895;-66
2021/08/06 22:59:37;;;;;;;10.68;6.35;;;;;;;15.87;62.76;98159.33;263270;1093;114834;-64
2021/08/06 23:04:45;;;;;;;11.25;6.05;;;;;;;15.90;62.74;98153.66;262974;1093;115231;-62
2021/08/06 23:09:50;;;;;;;11.53;5.78;;;;;;;15.91;63.00;98163.39;263706;1092;115164;-65
2021/08/06 23:14:54;;;;;;;11.08;5.98;;;;;;;15.88;62.90;98169.89;263522;1092;115241;-63
2021/08/06 23:19:58;;;;;;;12.05;6.65;;;;;;;15.86;62.85;98169.19;263447;1092;116305;-62
2021/08/06 23:25:02;;;;;;;9.55;6.25;;;;;;;15.81;63.09;98171.49;263107;1092;115524;-64